createdAt,value
2019-05-30T00:01:21.413Z,13.08
2019-05-30T00:03:51.920Z,12.45
2019-05-30T00:06:25.544Z,12.31
2019-05-30T00:08:54.779Z,12.02
2019-05-30T00:11:26.408Z,12.74
2019-05-30T00:13:56.687Z,13.28
2019-05-30T00:16:29.598Z,13.08
2019-05-30T00:18:58.803Z,13.05
2019-05-30T00:21:28.030Z,13.23
2019-05-30T00:24:04.316Z,13.72
2019-05-30T00:26:32.752Z,13.20
2019-05-30T00:29:02.611Z,12.60
2019-05-30T00:31:35.656Z,12.23
2019-05-30T00:34:07.997Z,4.04
2019-05-30T00:36:38.844Z,12.22
2019-05-30T00:39:08.121Z,12.29
2019-05-30T00:41:37.772Z,11.98
2019-05-30T00:44:08.232Z,11.89
2019-05-30T00:46:39.337Z,12.03
2019-05-30T00:49:11.197Z,11.87
2019-05-30T00:51:40.343Z,12.02
2019-05-30T00:54:09.495Z,12.07
2019-05-30T00:56:39.725Z,11.99
2019-05-30T00:59:08.838Z,12.19
2019-05-30T01:01:42.645Z,12.60
2019-05-30T01:04:12.127Z,13.05
2019-05-30T01:06:44.072Z,13.28
2019-05-30T01:09:20.741Z,13.06
2019-05-30T01:11:49.924Z,12.89
2019-05-30T01:14:20.156Z,12.88
2019-05-30T01:16:49.261Z,13.04
2019-05-30T01:19:27.935Z,12.77
2019-05-30T01:21:57.191Z,12.33
2019-05-30T01:24:27.576Z,12.27
2019-05-30T01:26:57.156Z,11.90
2019-05-30T01:29:26.346Z,11.88
2019-05-30T01:31:57.428Z,11.73
2019-05-30T01:34:26.703Z,11.40
2019-05-30T01:36:57.572Z,11.02
2019-05-30T01:39:26.775Z,10.90
2019-05-30T01:41:57.759Z,8.58
2019-05-30T01:44:30.664Z,10.32
2019-05-30T01:47:00.154Z,10.41
2019-05-30T01:49:29.513Z,10.54
2019-05-30T01:52:04.763Z,10.42
2019-05-30T01:54:33.947Z,10.37
2019-05-30T01:57:05.282Z,10.42
2019-05-30T01:59:34.438Z,10.53
2019-05-30T02:02:05.024Z,10.67
2019-05-30T02:04:38.517Z,10.48
2019-05-30T02:07:07.669Z,10.36
2019-05-30T02:09:39.658Z,10.47
2019-05-30T02:12:09.633Z,10.22
2019-05-30T02:14:42.404Z,10.07
2019-05-30T02:17:11.535Z,10.35
2019-05-30T02:19:40.687Z,10.41
2019-05-30T02:22:11.113Z,10.15
2019-05-30T02:24:40.612Z,10.11
2019-05-30T02:27:10.345Z,10.20
2019-05-30T02:29:44.251Z,9.78
2019-05-30T02:32:13.581Z,10.13
2019-05-30T02:34:45.607Z,10.05
2019-05-30T02:37:20.129Z,10.26
2019-05-30T02:39:49.211Z,10.13
2019-05-30T02:42:18.343Z,10.20
2019-05-30T02:44:47.489Z,10.00
2019-05-30T02:47:17.023Z,9.92
2019-05-30T02:49:52.147Z,10.10
2019-05-30T02:52:21.287Z,10.13
2019-05-30T02:54:51.898Z,10.33
2019-05-30T02:57:21.135Z,10.24
2019-05-30T02:59:56.410Z,10.12
2019-05-30T03:02:25.535Z,10.45
2019-05-30T03:04:54.735Z,10.80
2019-05-30T03:07:25.844Z,11.08
2019-05-30T03:09:56.128Z,10.81
2019-05-30T03:12:32.296Z,11.07
2019-05-30T03:15:02.503Z,10.46
2019-05-30T03:17:37.804Z,10.22
2019-05-30T03:20:21.490Z,10.16
2019-05-30T03:22:42.105Z,9.95
2019-05-30T03:25:15.598Z,9.76
2019-05-30T03:27:42.440Z,9.75
2019-05-30T03:30:25.703Z,9.70
2019-05-30T03:33:05.244Z,9.88
2019-05-30T03:35:27.718Z,9.87
2019-05-30T03:37:51.421Z,9.93
2019-05-30T03:40:22.819Z,9.71
2019-05-30T03:42:52.036Z,10.13
2019-05-30T03:45:29.079Z,10.26
2019-05-30T03:48:01.425Z,10.02
2019-05-30T03:50:32.182Z,10.24
2019-05-30T03:53:04.607Z,10.53
2019-05-30T03:55:37.333Z,10.55
2019-05-30T03:58:14.346Z,10.72
2019-05-30T04:00:51.935Z,11.05
2019-05-30T04:03:43.978Z,11.34
2019-05-30T04:06:20.783Z,11.74
2019-05-30T04:08:50.990Z,4.13
2019-05-30T04:11:23.534Z,11.94
2019-05-30T04:13:55.419Z,12.25
2019-05-30T04:16:24.654Z,12.19
2019-05-30T04:18:55.141Z,12.19
2019-05-30T04:21:33.490Z,12.47
2019-05-30T04:24:04.921Z,12.06
2019-05-30T04:26:35.075Z,11.85
2019-05-30T04:29:07.893Z,11.71
2019-05-30T04:31:38.570Z,11.43
2019-05-30T04:34:08.358Z,12.08
2019-05-30T04:36:43.754Z,12.31
2019-05-30T04:39:13.073Z,12.16
2019-05-30T04:41:42.684Z,12.20
2019-05-30T04:44:16.385Z,12.27
2019-05-30T04:46:48.839Z,12.61
2019-05-30T04:49:21.619Z,12.74
2019-05-30T04:51:53.732Z,12.13
2019-05-30T04:54:25.669Z,12.90
2019-05-30T04:56:58.414Z,12.66
2019-05-30T04:59:28.866Z,13.17
2019-05-30T05:02:00.542Z,13.78
2019-05-30T05:04:32.972Z,13.67
2019-05-30T05:07:05.190Z,14.14
2019-05-30T05:09:36.419Z,13.85
2019-05-30T05:12:20.763Z,13.44
2019-05-30T05:14:49.871Z,13.34
2019-05-30T05:17:20.897Z,14.23
2019-05-30T05:19:51.871Z,14.65
2019-05-30T05:22:21.207Z,14.65
2019-05-30T05:24:58.877Z,13.57
2019-05-30T05:27:28.106Z,13.63
2019-05-30T05:29:57.228Z,13.42
2019-05-30T05:32:28.061Z,13.48
2019-05-30T05:35:00.234Z,13.60
2019-05-30T05:37:29.373Z,13.10
2019-05-30T05:39:58.822Z,13.65
2019-05-30T05:42:30.173Z,13.89
2019-05-30T05:44:59.758Z,14.17
2019-05-30T05:47:32.941Z,13.77
2019-05-30T05:50:02.192Z,13.45
2019-05-30T05:52:33.631Z,14.02
2019-05-30T05:55:05.855Z,13.67
2019-05-30T05:57:35.288Z,13.63
2019-05-30T06:00:05.425Z,13.56
2019-05-30T06:02:41.009Z,13.87
2019-05-30T06:05:11.599Z,14.60
2019-05-30T06:07:47.654Z,14.14
2019-05-30T06:10:19.627Z,13.74
2019-05-30T06:12:48.908Z,14.44
2019-05-30T06:15:20.808Z,14.59
2019-05-30T06:17:52.300Z,14.03
2019-05-30T06:20:23.311Z,14.85
2019-05-30T06:22:52.784Z,14.43
2019-05-30T06:25:29.834Z,14.86
2019-05-30T06:27:54.595Z,14.87
2019-05-30T06:30:26.388Z,15.48
2019-05-30T06:32:57.669Z,15.44
2019-05-30T06:35:27.482Z,15.44
2019-05-30T06:37:56.745Z,15.39
2019-05-30T06:40:25.916Z,15.17
2019-05-30T06:42:56.125Z,15.16
2019-05-30T06:45:26.892Z,15.13
2019-05-30T06:47:56.127Z,15.31
2019-05-30T06:50:26.837Z,16.13
2019-05-30T06:53:01.027Z,15.83
2019-05-30T06:55:33.539Z,16.21
2019-05-30T06:58:03.801Z,16.16
2019-05-30T07:00:33.085Z,16.21
2019-05-30T07:03:05.511Z,15.72
2019-05-30T07:05:39.661Z,15.80
2019-05-30T07:08:17.013Z,15.53
2019-05-30T07:10:46.681Z,15.65
2019-05-30T07:13:15.864Z,16.07
2019-05-30T07:15:45.263Z,15.76
2019-05-30T07:18:18.922Z,15.94
2019-05-30T07:20:50.604Z,16.15
2019-05-30T07:23:24.243Z,15.96
2019-05-30T07:25:54.706Z,16.69
2019-05-30T07:28:27.893Z,16.43
2019-05-30T07:30:57.393Z,16.36
2019-05-30T07:33:28.410Z,16.62
2019-05-30T07:35:58.712Z,17.00
2019-05-30T07:38:30.507Z,17.16
2019-05-30T07:41:00.338Z,17.83
2019-05-30T07:43:30.733Z,17.66
2019-05-30T07:46:05.681Z,18.42
2019-05-30T07:48:34.773Z,19.08
2019-05-30T07:51:04.784Z,18.84
2019-05-30T07:53:35.666Z,18.86
2019-05-30T07:56:05.508Z,17.72
2019-05-30T07:58:35.358Z,18.55
2019-05-30T08:01:10.181Z,19.14
2019-05-30T08:03:40.662Z,18.71
2019-05-30T08:06:15.081Z,18.70
2019-05-30T08:08:46.791Z,19.20
2019-05-30T08:11:21.133Z,16.42
2019-05-30T08:13:51.348Z,19.31
2019-05-30T08:16:20.960Z,19.51
2019-05-30T08:18:56.951Z,20.14
2019-05-30T08:21:26.119Z,19.83
2019-05-30T08:24:01.338Z,19.29
2019-05-30T08:26:30.543Z,18.97
2019-05-30T08:29:01.026Z,19.92
2019-05-30T08:31:30.469Z,19.69
2019-05-30T08:33:59.691Z,20.12
2019-05-30T08:36:30.871Z,20.58
2019-05-30T08:39:01.712Z,20.56
2019-05-30T08:41:31.291Z,20.77
2019-05-30T08:44:02.939Z,20.12
2019-05-30T08:46:32.381Z,20.15
2019-05-30T08:49:04.234Z,19.77
2019-05-30T08:51:34.146Z,20.86
2019-05-30T08:54:04.853Z,20.68
2019-05-30T08:56:37.047Z,20.92
2019-05-30T08:59:06.439Z,20.25
2019-05-30T09:01:35.789Z,20.42
2019-05-30T09:04:05.491Z,21.05
2019-05-30T09:06:35.756Z,21.14
2019-05-30T09:09:06.813Z,20.62
2019-05-30T09:11:40.631Z,20.86
2019-05-30T09:14:11.428Z,20.97
2019-05-30T09:16:46.173Z,21.42
2019-05-30T09:19:15.767Z,21.94
2019-05-30T09:21:45.521Z,20.72
2019-05-30T09:24:14.948Z,21.46
2019-05-30T09:26:49.029Z,21.80
2019-05-30T09:29:16.934Z,21.34
2019-05-30T09:31:46.721Z,21.34
2019-05-30T09:34:15.932Z,21.36
2019-05-30T09:36:45.223Z,21.54
2019-05-30T09:39:14.372Z,21.60
2019-05-30T09:41:43.888Z,20.92
2019-05-30T09:44:13.161Z,20.80
2019-05-30T09:46:46.891Z,21.48
2019-05-30T09:49:18.368Z,21.28
2019-05-30T09:51:53.237Z,21.01
2019-05-30T09:54:23.007Z,13.29
2019-05-30T09:56:57.344Z,21.93
2019-05-30T09:59:30.157Z,21.60
2019-05-30T10:02:01.837Z,21.67
2019-05-30T10:04:32.777Z,21.59
2019-05-30T10:07:01.955Z,20.85
2019-05-30T10:09:35.393Z,21.12
2019-05-30T10:12:07.989Z,21.19
2019-05-30T10:14:38.144Z,20.55
2019-05-30T10:17:12.121Z,21.26
2019-05-30T10:19:41.310Z,21.76
2019-05-30T10:22:11.752Z,21.45
2019-05-30T10:24:51.337Z,21.55
2019-05-30T10:27:20.451Z,21.79
2019-05-30T10:29:49.574Z,21.87
2019-05-30T10:32:20.059Z,21.67
2019-05-30T10:34:49.627Z,21.71
2019-05-30T10:37:20.132Z,21.39
2019-05-30T10:39:51.117Z,21.89
2019-05-30T10:42:20.795Z,21.80
2019-05-30T10:44:51.248Z,21.54
2019-05-30T10:47:23.644Z,21.53
2019-05-30T10:49:59.368Z,22.21
2019-05-30T10:52:28.535Z,23.18
2019-05-30T10:55:00.574Z,22.95
2019-05-30T10:57:35.299Z,23.11
2019-05-30T11:00:05.475Z,22.82
2019-05-30T11:02:35.611Z,22.25
2019-05-30T11:05:11.986Z,21.83
2019-05-30T11:08:06.269Z,22.16
2019-05-30T11:10:39.438Z,21.83
2019-05-30T11:13:10.980Z,21.74
2019-05-30T11:15:40.795Z,21.50
2019-05-30T11:18:10.199Z,21.84
2019-05-30T11:20:44.351Z,21.91
2019-05-30T11:23:15.820Z,22.03
2019-05-30T11:25:46.314Z,22.31
2019-05-30T11:28:15.402Z,22.58
2019-05-30T11:30:48.555Z,22.55
2019-05-30T11:33:17.935Z,22.38
2019-05-30T11:35:47.160Z,23.31
2019-05-30T11:38:18.710Z,23.31
2019-05-30T11:40:51.589Z,22.34
2019-05-30T11:43:20.751Z,23.10
2019-05-30T11:45:51.661Z,23.23
2019-05-30T11:48:25.370Z,23.13
2019-05-30T11:51:00.863Z,22.74
2019-05-30T11:53:30.029Z,22.36
2019-05-30T11:56:02.963Z,22.03
2019-05-30T11:58:39.327Z,21.89
2019-05-30T12:01:08.642Z,21.80
2019-05-30T12:03:37.989Z,21.80
2019-05-30T12:06:09.849Z,21.86
2019-05-30T12:08:38.999Z,21.79
2019-05-30T12:11:08.328Z,21.81
2019-05-30T12:13:41.357Z,21.45
2019-05-30T12:16:11.611Z,21.52
2019-05-30T12:18:43.285Z,21.81
2019-05-30T12:21:12.682Z,22.78
2019-05-30T12:23:44.462Z,22.95
2019-05-30T12:26:13.617Z,23.68
2019-05-30T12:28:43.740Z,23.64
2019-05-30T12:31:14.150Z,23.24
2019-05-30T12:33:47.924Z,22.87
2019-05-30T12:36:17.237Z,23.09
2019-05-30T12:38:46.431Z,24.14
2019-05-30T12:41:21.513Z,24.47
2019-05-30T12:43:50.943Z,23.82
2019-05-30T12:46:21.883Z,24.12
2019-05-30T12:48:51.096Z,24.36
2019-05-30T12:51:20.255Z,24.26
2019-05-30T12:53:50.605Z,23.99
2019-05-30T12:56:20.196Z,23.02
2019-05-30T12:58:49.695Z,23.05
2019-05-30T13:01:21.016Z,22.48
2019-05-30T13:03:50.307Z,22.80
2019-05-30T13:06:19.449Z,22.44
2019-05-30T13:08:49.642Z,22.21
2019-05-30T13:11:19.903Z,22.25
2019-05-30T13:13:49.575Z,22.22
2019-05-30T13:16:20.461Z,22.39
2019-05-30T13:18:49.673Z,22.13
2019-05-30T13:21:19.405Z,21.94
2019-05-30T13:23:51.854Z,22.37
2019-05-30T13:26:25.193Z,23.15
2019-05-30T13:29:00.209Z,24.37
2019-05-30T13:31:32.125Z,25.46
2019-05-30T13:34:01.263Z,25.14
2019-05-30T13:36:31.517Z,23.56
2019-05-30T13:39:03.161Z,22.74
2019-05-30T13:41:36.256Z,23.15
2019-05-30T13:44:09.436Z,22.86
2019-05-30T13:46:38.403Z,23.04
2019-05-30T13:49:09.351Z,21.92
2019-05-30T13:51:38.547Z,22.11
2019-05-30T13:54:12.447Z,21.20
2019-05-30T13:56:45.345Z,21.45
2019-05-30T13:59:19.685Z,12.65
2019-05-30T14:01:50.701Z,21.22
2019-05-30T14:04:19.844Z,21.57
2019-05-30T14:06:52.988Z,21.80
2019-05-30T14:09:23.201Z,21.56
2019-05-30T14:11:56.717Z,21.88
2019-05-30T14:14:26.288Z,22.14
2019-05-30T14:16:55.424Z,21.86
2019-05-30T14:19:25.682Z,21.75
2019-05-30T14:21:55.005Z,21.37
2019-05-30T14:24:27.793Z,22.03
2019-05-30T14:26:57.039Z,22.42
2019-05-30T14:29:36.391Z,22.13
2019-05-30T14:32:05.820Z,21.93
2019-05-30T14:34:35.519Z,22.45
2019-05-30T14:37:04.942Z,22.16
2019-05-30T14:39:35.355Z,21.87
2019-05-30T14:42:07.604Z,21.62
2019-05-30T14:44:36.817Z,22.07
2019-05-30T14:47:06.433Z,21.79
2019-05-30T14:49:38.884Z,22.27
2019-05-30T14:52:08.814Z,22.31
2019-05-30T14:54:40.403Z,22.49
2019-05-30T14:57:09.658Z,22.38
2019-05-30T14:59:40.523Z,22.76
2019-05-30T15:02:13.333Z,22.53
2019-05-30T15:04:42.636Z,22.18
2019-05-30T15:07:11.807Z,22.75
2019-05-30T15:09:42.561Z,22.77
2019-05-30T15:12:14.632Z,22.70
2019-05-30T15:14:44.240Z,23.64
2019-05-30T15:17:14.298Z,24.13
2019-05-30T15:19:43.588Z,23.78
2019-05-30T15:22:16.376Z,23.88
2019-05-30T15:24:50.984Z,24.15
2019-05-30T15:27:20.974Z,24.15
2019-05-30T15:29:51.257Z,23.83
2019-05-30T15:32:23.988Z,22.52
2019-05-30T15:34:55.023Z,23.22
2019-05-30T15:37:25.511Z,23.60
2019-05-30T15:39:54.633Z,23.88
2019-05-30T15:42:25.388Z,24.19
2019-05-30T15:44:57.286Z,24.13
2019-05-30T15:47:26.534Z,24.96
2019-05-30T15:49:57.113Z,25.35
2019-05-30T15:52:26.615Z,25.05
2019-05-30T15:54:55.863Z,24.99
2019-05-30T15:57:29.470Z,24.38
2019-05-30T15:59:58.830Z,24.86
2019-05-30T16:02:27.991Z,24.62
2019-05-30T16:04:59.018Z,24.12
2019-05-30T16:07:29.543Z,24.56
2019-05-30T16:10:03.133Z,23.24
2019-05-30T16:12:40.081Z,24.04
2019-05-30T16:15:11.768Z,23.34
2019-05-30T16:17:41.287Z,23.44
2019-05-30T16:20:13.861Z,23.37
2019-05-30T16:22:43.597Z,23.10
2019-05-30T16:25:19.702Z,23.32
2019-05-30T16:27:49.814Z,22.78
2019-05-30T16:30:23.804Z,22.67
2019-05-30T16:32:53.238Z,22.42
2019-05-30T16:35:22.703Z,22.45
2019-05-30T16:37:52.024Z,22.63
2019-05-30T16:40:24.025Z,22.88
2019-05-30T16:42:53.594Z,23.09
2019-05-30T16:45:25.156Z,23.66
2019-05-30T16:47:53.682Z,23.38
2019-05-30T16:50:27.745Z,22.47
2019-05-30T16:52:57.164Z,21.95
2019-05-30T16:55:29.147Z,21.94
2019-05-30T16:57:58.263Z,22.51
2019-05-30T17:00:30.189Z,22.88
2019-05-30T17:02:59.306Z,22.12
2019-05-30T17:05:29.649Z,21.89
2019-05-30T17:07:58.853Z,22.70
2019-05-30T17:10:33.140Z,23.07
2019-05-30T17:13:03.332Z,22.71
2019-05-30T17:15:32.746Z,22.97
2019-05-30T17:18:03.492Z,22.42
2019-05-30T17:20:32.744Z,22.81
2019-05-30T17:23:01.917Z,23.25
2019-05-30T17:25:31.072Z,22.68
2019-05-30T17:28:00.241Z,23.19
2019-05-30T17:30:31.783Z,22.32
2019-05-30T17:33:01.018Z,22.45
2019-05-30T17:35:30.167Z,22.18
2019-05-30T17:38:01.035Z,21.81
2019-05-30T17:40:44.312Z,21.69
2019-05-30T17:43:03.168Z,21.55
2019-05-30T17:45:32.343Z,20.86
2019-05-30T17:48:15.665Z,20.51
2019-05-30T17:50:32.462Z,21.23
2019-05-30T17:53:02.395Z,20.93
2019-05-30T17:55:32.950Z,21.16
2019-05-30T17:58:03.788Z,20.84
2019-05-30T18:00:33.106Z,20.81
2019-05-30T18:03:07.155Z,21.10
2019-05-30T18:05:38.700Z,20.96
2019-05-30T18:08:07.969Z,21.26
2019-05-30T18:10:37.180Z,20.93
2019-05-30T18:13:08.558Z,21.35
2019-05-30T18:15:40.075Z,21.02
2019-05-30T18:18:09.332Z,20.73
2019-05-30T18:20:48.531Z,20.54
2019-05-30T18:23:11.996Z,20.97
2019-05-30T18:25:43.947Z,20.68
2019-05-30T18:28:13.245Z,20.50
2019-05-30T18:30:44.574Z,20.79
2019-05-30T18:33:14.790Z,12.67
2019-05-30T18:35:55.628Z,20.86
2019-05-30T18:38:26.479Z,21.24
2019-05-30T18:41:10.218Z,20.60
2019-05-30T18:43:26.836Z,21.19
2019-05-30T18:45:57.244Z,21.54
2019-05-30T18:48:29.686Z,21.04
2019-05-30T18:50:58.890Z,21.13
2019-05-30T18:53:30.404Z,20.86
2019-05-30T18:56:02.752Z,21.07
2019-05-30T18:58:35.217Z,20.82
2019-05-30T19:01:04.454Z,21.07
2019-05-30T19:03:37.170Z,21.14
2019-05-30T19:06:06.631Z,21.41
2019-05-30T19:08:38.771Z,21.19
2019-05-30T19:11:09.628Z,20.85
2019-05-30T19:13:44.350Z,20.73
2019-05-30T19:16:13.903Z,20.30
2019-05-30T19:18:44.647Z,20.63
2019-05-30T19:21:13.753Z,20.27
2019-05-30T19:23:42.890Z,20.46
2019-05-30T19:26:14.783Z,20.43
2019-05-30T19:28:45.022Z,20.11
2019-05-30T19:31:15.381Z,20.19
2019-05-30T19:33:44.651Z,20.17
2019-05-30T19:36:18.249Z,19.85
2019-05-30T19:38:52.340Z,19.91
2019-05-30T19:41:24.964Z,20.09
2019-05-30T19:43:54.553Z,20.13
2019-05-30T19:46:36.291Z,20.26
2019-05-30T19:49:05.680Z,20.23
2019-05-30T19:51:39.111Z,20.03
2019-05-30T19:54:08.442Z,20.08
2019-05-30T19:56:41.980Z,19.72
2019-05-30T19:59:14.385Z,20.24
2019-05-30T20:01:43.638Z,20.01
2019-05-30T20:04:13.179Z,20.24
2019-05-30T20:06:44.177Z,20.43
2019-05-30T20:09:15.800Z,20.18
2019-05-30T20:12:02.115Z,20.53
2019-05-30T20:14:15.922Z,20.49
2019-05-30T20:16:46.331Z,20.19
2019-05-30T20:19:18.378Z,20.21
2019-05-30T20:21:51.812Z,20.19
2019-05-30T20:24:28.443Z,20.24
2019-05-30T20:27:00.446Z,20.07
2019-05-30T20:29:29.572Z,20.26
2019-05-30T20:32:09.260Z,20.51
2019-05-30T20:34:38.981Z,20.82
2019-05-30T20:37:13.367Z,20.87
2019-05-30T20:39:42.902Z,20.98
2019-05-30T20:42:19.139Z,20.98
2019-05-30T20:44:47.116Z,20.90
2019-05-30T20:47:15.766Z,20.84
2019-05-30T20:49:44.961Z,20.97
2019-05-30T20:52:17.200Z,21.05
2019-05-30T20:54:49.656Z,20.93
2019-05-30T20:57:21.909Z,20.73
2019-05-30T20:59:56.417Z,20.97
2019-05-30T21:02:30.175Z,20.93
2019-05-30T21:05:00.637Z,20.99
2019-05-30T21:07:35.868Z,20.92
2019-05-30T21:10:06.486Z,21.02
2019-05-30T21:12:40.695Z,20.85
2019-05-30T21:15:13.676Z,20.94
2019-05-30T21:17:46.449Z,20.95
2019-05-30T21:20:17.349Z,20.89
2019-05-30T21:22:46.841Z,19.19
2019-05-30T21:25:23.624Z,20.91
2019-05-30T21:27:52.892Z,20.78
2019-05-30T21:30:26.688Z,20.86
2019-05-30T21:32:56.309Z,20.71
2019-05-30T21:35:30.827Z,20.44
2019-05-30T21:38:02.003Z,19.71
2019-05-30T21:40:31.207Z,19.78
2019-05-30T21:43:06.424Z,19.88
2019-05-30T21:45:33.350Z,19.92
2019-05-30T21:48:05.263Z,19.86
2019-05-30T21:50:35.571Z,20.22
2019-05-30T21:53:08.739Z,20.18
2019-05-30T21:55:37.854Z,20.08
2019-05-30T21:58:13.498Z,19.74
2019-05-30T22:01:40.699Z,19.84
2019-05-30T22:04:11.827Z,19.57
2019-05-30T22:06:42.807Z,19.89
2019-05-30T22:09:12.206Z,20.21
2019-05-30T22:11:43.660Z,20.36
2019-05-30T22:14:13.002Z,20.50
2019-05-30T22:16:44.152Z,20.28
2019-05-30T22:19:13.301Z,20.23
2019-05-30T22:21:46.195Z,20.42
2019-05-30T22:24:16.119Z,20.29
2019-05-30T22:26:48.228Z,20.46
2019-05-30T22:29:16.199Z,20.07
2019-05-30T22:31:46.500Z,20.11
2019-05-30T22:34:17.275Z,19.84
2019-05-30T22:36:48.947Z,19.88
2019-05-30T22:39:18.959Z,20.38
2019-05-30T22:41:50.705Z,20.49
2019-05-30T22:44:19.876Z,20.27
2019-05-30T22:46:50.240Z,20.25
2019-05-30T22:49:19.437Z,20.25
2019-05-30T22:51:51.520Z,20.20
2019-05-30T22:54:20.752Z,20.27
2019-05-30T22:56:49.867Z,20.05
2019-05-30T22:59:20.006Z,19.51
2019-05-30T23:01:49.426Z,19.46
2019-05-30T23:04:20.251Z,19.23
2019-05-30T23:06:52.439Z,18.85
2019-05-30T23:09:25.942Z,18.61
2019-05-30T23:11:58.123Z,18.54
2019-05-30T23:14:30.059Z,18.53
2019-05-30T23:17:08.473Z,18.67
2019-05-30T23:19:38.148Z,19.21
2019-05-30T23:22:13.099Z,19.61
2019-05-30T23:24:42.336Z,19.78
2019-05-30T23:27:12.662Z,19.54
2019-05-30T23:29:42.188Z,19.02
2019-05-30T23:32:13.789Z,19.50
2019-05-30T23:34:42.942Z,19.44
2019-05-30T23:37:14.073Z,19.90
2019-05-30T23:39:46.131Z,19.90
2019-05-30T23:42:17.341Z,19.91
2019-05-30T23:44:46.461Z,20.03
2019-05-30T23:47:17.521Z,20.15
2019-05-30T23:49:47.065Z,20.16
2019-05-30T23:52:16.447Z,20.05
2019-05-30T23:54:45.558Z,19.88
2019-05-30T23:57:16.049Z,19.96
2019-05-30T23:59:45.352Z,19.61
